Time;durP1;ratioP1;P1;durP2;ratioP2;P2;SDS_P1;SDS_P2;PMS_P1;PMS_P2;Temp;Humidity;BMP_temperature;BMP_pressure;BME280_temperature;BME280_humidity;BME280_pressure;Samples;Min_cycle;Max_cycle;Signal;HPM_P1;HPM_P2
2023/09/28 00:00:43;;;;;;;10.27;7.50;;;14.70;31.70;;;;;;7393006;19;20014;-71
2023/09/28 00:03:10;;;;;;;8.68;7.32;;;14.80;28.20;;;;;;7389885;19;20486;-71
2023/09/28 00:05:41;;;;;;;10.68;7.40;;;14.70;26.50;;;;;;7391329;19;20023;-71
2023/09/28 00:08:11;;;;;;;8.48;7.18;;;14.70;27.00;;;;;;7393812;19;20006;-70
2023/09/28 00:10:38;;;;;;;10.88;6.78;;;14.60;31.10;;;;;;7392783;19;20010;-70
2023/09/28 00:13:08;;;;;;;10.18;6.82;;;14.70;27.90;;;;;;7393395;19;20011;-70
2023/09/28 00:15:38;;;;;;;9.68;6.38;;;14.60;27.90;;;;;;7391535;19;20039;-70
2023/09/28 00:18:08;;;;;;;8.90;6.45;;;14.60;29.70;;;;;;7393967;19;20023;-70
2023/09/28 00:20:36;;;;;;;10.73;6.80;;;14.60;26.60;;;;;;7391346;19;20039;-70
2023/09/28 00:23:06;;;;;;;9.55;7.07;;;14.50;27.70;;;;;;7393686;19;20025;-69
2023/09/28 00:25:34;;;;;;;8.98;6.90;;;14.60;27.90;;;;;;7406414;19;20415;-71
2023/09/28 00:28:05;;;;;;;11.38;6.93;;;14.60;25.70;;;;;;7393509;19;20015;-71
2023/09/28 00:30:35;;;;;;;14.48;8.30;;;14.60;27.30;;;;;;7392646;19;20470;-71
2023/09/28 00:33:06;;;;;;;10.55;7.28;;;14.60;27.40;;;;;;7391536;19;20010;-70
2023/09/28 00:35:36;;;;;;;8.13;7.15;;;14.60;25.70;;;;;;7392383;19;20757;-71
2023/09/28 00:38:05;;;;;;;10.32;7.78;;;14.70;25.60;;;;;;7392067;19;20082;-71
2023/09/28 00:40:36;;;;;;;13.55;7.90;;;14.60;25.80;;;;;;7391831;19;20394;-71
2023/09/28 00:43:04;;;;;;;13.35;8.43;;;14.70;23.30;;;;;;7392694;19;20014;-70
2023/09/28 00:45:34;;;;;;;10.25;8.50;;;14.80;21.90;;;;;;7391503;19;20494;-70
2023/09/28 00:48:06;;;;;;;11.75;7.47;;;14.80;20.50;;;;;;7390732;19;20018;-70
2023/09/28 00:50:36;;;;;;;13.40;7.75;;;14.80;19.60;;;;;;7390523;19;20019;-70
2023/09/28 00:53:07;;;;;;;12.63;7.82;;;14.80;16.50;;;;;;7391495;19;20028;-70
2023/09/28 00:55:39;;;;;;;10.38;7.85;;;14.80;17.50;;;;;;7390757;19;20574;-70
2023/09/28 00:58:08;;;;;;;10.88;8.00;;;14.70;19.40;;;;;;7392743;19;20010;-70
2023/09/28 01:00:40;;;;;;;9.00;7.65;;;14.60;21.90;;;;;;7391974;19;20466;-70
2023/09/28 01:03:11;;;;;;;10.43;7.45;;;14.60;22.00;;;;;;7392457;19;20017;-70
2023/09/28 01:05:41;;;;;;;10.40;7.78;;;14.60;25.20;;;;;;7390318;19;20015;-70
2023/09/28 01:08:12;;;;;;;10.18;7.78;;;14.50;26.10;;;;;;7392570;19;20035;-70
2023/09/28 01:10:43;;;;;;;10.93;7.55;;;14.60;25.60;;;;;;7391190;19;20015;-70
2023/09/28 01:13:12;;;;;;;14.80;8.20;;;14.50;24.40;;;;;;7392281;19;20420;-70
2023/09/28 01:15:43;;;;;;;10.70;7.95;;;14.50;23.80;;;;;;7387754;19;20007;-71
2023/09/28 01:18:15;;;;;;;9.48;7.40;;;14.60;19.60;;;;;;7391735;19;20042;-70
2023/09/28 01:20:46;;;;;;;10.15;7.68;;;14.60;19.50;;;;;;7390765;19;20014;-70
2023/09/28 01:23:16;;;;;;;9.65;6.95;;;14.50;21.70;;;;;;7391787;19;20502;-70
2023/09/28 01:25:49;;;;;;;9.52;7.28;;;14.50;20.00;;;;;;7389898;19;20548;-70
2023/09/28 01:28:17;;;;;;;9.00;7.45;;;14.60;17.20;;;;;;7389428;19;20082;-70
2023/09/28 01:30:48;;;;;;;11.82;7.65;;;14.60;15.80;;;;;;7388807;19;20023;-70
2023/09/28 01:33:15;;;;;;;10.40;7.18;;;14.60;17.10;;;;;;7391779;19;20006;-70
2023/09/28 01:35:45;;;;;;;8.55;6.65;;;14.50;17.80;;;;;;7391148;19;20015;-70
2023/09/28 01:38:20;;;;;;;8.73;7.05;;;14.60;16.00;;;;;;7391123;19;20019;-70
2023/09/28 01:40:51;;;;;;;9.82;6.50;;;14.60;13.60;;;;;;7391701;19;20086;-71
2023/09/28 01:43:22;;;;;;;8.05;6.68;;;14.60;12.80;;;;;;7391634;19;20011;-71
2023/09/28 01:45:49;;;;;;;12.00;7.97;;;14.70;8.00;;;;;;7390371;19;20031;-72
2023/09/28 01:48:19;;;;;;;10.57;7.55;;;14.80;2.50;;;;;;7390523;19;20059;-70
2023/09/28 01:50:46;;;;;;;9.93;7.15;;;14.90;1.00;;;;;;7390373;19;20010;-71
2023/09/28 01:53:16;;;;;;;9.75;7.50;;;14.80;1.00;;;;;;7390861;19;20031;-71
2023/09/28 01:55:52;;;;;;;13.60;6.82;;;14.80;1.00;;;;;;7387921;19;20014;-71
2023/09/28 01:58:22;;;;;;;10.93;7.53;;;14.90;1.00;;;;;;7388615;19;20039;-71
2023/09/28 02:00:49;;;;;;;9.43;6.85;;;14.80;1.00;;;;;;7390685;19;20594;-71
2023/09/28 02:03:21;;;;;;;9.52;6.63;;;14.90;1.00;;;;;;7388593;19;20015;-70
2023/09/28 02:05:52;;;;;;;10.02;6.85;;;14.80;1.00;;;;;;7389460;19;20503;-70
2023/09/28 02:08:20;;;;;;;11.40;7.03;;;14.80;1.00;;;;;;7389800;19;20015;-71
2023/09/28 02:10:52;;;;;;;11.77;8.00;;;14.90;1.00;;;;;;7390024;19;20434;-70
2023/09/28 02:13:20;;;;;;;9.32;6.97;;;14.90;1.00;;;;;;7390412;19;20015;-70
2023/09/28 02:15:49;;;;;;;11.07;6.78;;;14.90;1.00;;;;;;7389640;19;20030;-71
2023/09/28 02:18:17;;;;;;;9.05;6.38;;;14.90;1.00;;;;;;7389798;19;20090;-70
2023/09/28 02:20:47;;;;;;;9.30;6.90;;;14.90;1.00;;;;;;7389676;19;20078;-70
2023/09/28 02:23:14;;;;;;;9.05;6.55;;;14.90;1.00;;;;;;7390071;19;20039;-70
2023/09/28 02:25:44;;;;;;;11.05;5.97;;;14.80;1.00;;;;;;7389466;19;20013;-70
2023/09/28 02:28:17;;;;;;;7.55;5.82;;;14.90;1.00;;;;;;7395787;19;20022;-71
2023/09/28 02:30:47;;;;;;;7.97;5.88;;;14.80;1.00;;;;;;7396710;19;20006;-71
2023/09/28 02:33:15;;;;;;;7.82;5.90;;;14.90;1.00;;;;;;7396441;19;20026;-71
2023/09/28 02:35:45;;;;;;;9.30;6.47;;;14.90;1.00;;;;;;7395296;19;20010;-71
2023/09/28 02:38:13;;;;;;;10.73;6.65;;;14.90;1.00;;;;;;7394719;19;20022;-71
2023/09/28 02:40:43;;;;;;;11.32;8.25;;;15.00;1.00;;;;;;7395159;19;20014;-70
2023/09/28 02:43:13;;;;;;;10.13;6.50;;;14.90;1.00;;;;;;7394764;19;20583;-71
2023/09/28 02:45:42;;;;;;;9.88;6.60;;;14.90;1.00;;;;;;7394122;19;20010;-70
2023/09/28 02:48:12;;;;;;;8.20;6.95;;;15.00;1.00;;;;;;7395835;19;20010;-71
2023/09/28 02:50:40;;;;;;;9.85;6.68;;;14.90;1.00;;;;;;7393150;19;20480;-71
2023/09/28 02:53:10;;;;;;;9.15;6.57;;;14.90;1.00;;;;;;7394328;19;20010;-71
2023/09/28 02:55:37;;;;;;;10.30;6.95;;;14.90;1.00;;;;;;7393100;19;20633;-70
2023/09/28 02:58:08;;;;;;;11.05;7.03;;;14.90;1.00;;;;;;7395449;19;20369;-70
2023/09/28 03:00:36;;;;;;;8.63;6.55;;;14.90;1.00;;;;;;7394415;19;20010;-70
2023/09/28 03:03:09;;;;;;;9.40;6.88;;;15.00;1.00;;;;;;7395207;19;20351;-70
2023/09/28 03:05:38;;;;;;;10.02;5.97;;;15.00;1.00;;;;;;7393393;19;20114;-70
2023/09/28 03:08:11;;;;;;;8.18;6.82;;;14.90;1.00;;;;;;7394458;19;20022;-70
2023/09/28 03:10:40;;;;;;;7.80;6.05;;;14.90;1.00;;;;;;7391696;19;20574;-70
2023/09/28 03:13:11;;;;;;;10.73;6.22;;;14.80;1.00;;;;;;7394619;19;20010;-70
2023/09/28 03:15:40;;;;;;;8.48;6.13;;;14.80;1.00;;;;;;7393716;19;20010;-71
2023/09/28 03:18:14;;;;;;;9.52;6.18;;;14.80;1.00;;;;;;7394641;19;20013;-71
2023/09/28 03:20:44;;;;;;;9.07;6.50;;;14.80;1.00;;;;;;7393252;19;20093;-71
2023/09/28 03:23:14;;;;;;;9.73;6.10;;;14.80;1.00;;;;;;7395147;19;20026;-71
2023/09/28 03:25:42;;;;;;;7.82;6.40;;;14.80;1.00;;;;;;7391803;19;20024;-71
2023/09/28 03:28:13;;;;;;;12.77;6.78;;;14.80;1.00;;;;;;7394337;19;20038;-71
2023/09/28 03:30:40;;;;;;;9.35;6.30;;;14.80;1.00;;;;;;7393750;19;20467;-71
2023/09/28 03:33:13;;;;;;;8.32;6.53;;;14.80;1.00;;;;;;7390230;19;20014;-71
2023/09/28 03:35:40;;;;;;;9.77;6.20;;;14.70;1.00;;;;;;7390576;19;20038;-71
2023/09/28 03:38:10;;;;;;;8.35;6.43;;;14.70;1.00;;;;;;7385114;19;20031;-71
2023/09/28 03:40:43;;;;;;;8.13;6.07;;;14.70;1.00;;;;;;7392710;19;20042;-70
2023/09/28 03:43:13;;;;;;;12.80;6.07;;;14.70;1.00;;;;;;7394105;19;20078;-71
2023/09/28 03:45:43;;;;;;;8.07;6.00;;;14.60;1.00;;;;;;7392051;19;20006;-71
2023/09/28 03:48:16;;;;;;;9.02;6.18;;;14.60;1.00;;;;;;7394020;19;20019;-71
2023/09/28 03:50:45;;;;;;;7.82;6.35;;;14.60;1.00;;;;;;7393319;19;20017;-71
2023/09/28 03:53:15;;;;;;;7.03;5.85;;;14.70;1.00;;;;;;7393575;19;20031;-71
2023/09/28 03:55:49;;;;;;;8.27;5.45;;;14.70;1.00;;;;;;7392897;19;20014;-70
2023/09/28 03:58:21;;;;;;;8.57;5.43;;;14.70;1.00;;;;;;7407776;19;20021;-71
2023/09/28 04:00:51;;;;;;;7.20;5.95;;;14.60;1.00;;;;;;7394849;19;20018;-71
2023/09/28 04:03:24;;;;;;;9.18;6.95;;;14.60;1.00;;;;;;7394483;19;20418;-70
2023/09/28 04:05:54;;;;;;;11.55;7.07;;;14.70;1.00;;;;;;7391178;19;20046;-71
2023/09/28 04:08:24;;;;;;;9.40;6.18;;;14.70;1.00;;;;;;7388584;19;20018;-70
2023/09/28 04:10:55;;;;;;;8.70;6.65;;;14.70;1.00;;;;;;7390807;19;20368;-71
2023/09/28 04:13:25;;;;;;;9.00;7.15;;;14.70;1.00;;;;;;7392588;19;20015;-70
2023/09/28 04:15:55;;;;;;;9.68;6.47;;;14.70;1.00;;;;;;7390698;19;20370;-70
2023/09/28 04:18:28;;;;;;;10.32;6.82;;;14.70;1.00;;;;;;7393823;19;20038;-71
2023/09/28 04:20:58;;;;;;;8.57;6.78;;;14.60;1.00;;;;;;7393010;19;20014;-71
2023/09/28 04:23:28;;;;;;;9.10;6.18;;;14.60;1.00;;;;;;7393324;19;20023;-70
2023/09/28 04:25:58;;;;;;;10.80;6.68;;;14.60;1.00;;;;;;7392632;19;20019;-69
2023/09/28 04:28:28;;;;;;;8.48;6.22;;;14.50;1.00;;;;;;7392673;19;20007;-71
2023/09/28 04:30:57;;;;;;;8.43;6.40;;;14.50;1.00;;;;;;7392532;19;20714;-70
2023/09/28 04:33:31;;;;;;;8.80;6.25;;;14.60;1.00;;;;;;7392887;19;20487;-70
2023/09/28 04:36:01;;;;;;;8.67;6.17;;;14.70;1.00;;;;;;7391648;19;20021;-70
2023/09/28 04:38:31;;;;;;;7.10;5.95;;;14.70;1.00;;;;;;7392252;19;20313;-70
2023/09/28 04:41:03;;;;;;;8.00;6.00;;;14.70;1.00;;;;;;7391990;19;20078;-71
2023/09/28 04:43:33;;;;;;;8.93;6.47;;;14.70;1.00;;;;;;7392087;19;20530;-70
2023/09/28 04:46:07;;;;;;;8.93;6.53;;;14.70;1.00;;;;;;7390444;19;20010;-70
2023/09/28 04:48:40;;;;;;;8.80;6.68;;;14.70;1.00;;;;;;7391398;19;20015;-71
2023/09/28 04:51:10;;;;;;;9.27;7.10;;;14.70;1.00;;;;;;7390930;19;20082;-70
2023/09/28 04:53:39;;;;;;;8.57;6.32;;;14.60;1.00;;;;;;7391565;19;20415;-71
2023/09/28 04:56:15;;;;;;;11.15;6.82;;;14.60;1.00;;;;;;7391134;19;20014;-71
2023/09/28 04:58:45;;;;;;;10.68;6.97;;;14.70;1.00;;;;;;7391821;19;20022;-71
2023/09/28 05:01:16;;;;;;;10.52;6.82;;;14.70;1.00;;;;;;7390955;19;20015;-71
2023/09/28 05:03:50;;;;;;;13.00;6.80;;;14.70;1.00;;;;;;7391714;19;20021;-71
2023/09/28 05:06:21;;;;;;;9.75;7.18;;;14.70;1.00;;;;;;7389456;19;20030;-70
2023/09/28 05:08:51;;;;;;;10.60;6.75;;;14.70;1.00;;;;;;7391710;19;20699;-70
2023/09/28 05:11:21;;;;;;;9.02;6.47;;;14.60;1.00;;;;;;7391075;19;20101;-70
2023/09/28 05:13:51;;;;;;;10.00;6.60;;;14.70;1.00;;;;;;7390022;19;20014;-70
2023/09/28 05:16:22;;;;;;;9.55;6.95;;;14.70;1.00;;;;;;7388640;19;20025;-70
2023/09/28 05:18:55;;;;;;;9.13;6.32;;;14.70;1.00;;;;;;7391222;19;20060;-70
2023/09/28 05:21:26;;;;;;;15.52;8.27;;;14.70;1.00;;;;;;7389298;19;20020;-70
2023/09/28 05:23:56;;;;;;;9.93;7.22;;;14.70;1.00;;;;;;7391608;19;20010;-71
2023/09/28 05:26:26;;;;;;;10.63;7.40;;;14.70;1.00;;;;;;7389823;19;20025;-71
2023/09/28 05:28:57;;;;;;;10.60;6.28;;;14.80;1.00;;;;;;7392071;19;20092;-70
2023/09/28 05:31:27;;;;;;;8.90;6.47;;;14.80;1.00;;;;;;7388293;19;20018;-71
2023/09/28 05:34:00;;;;;;;14.30;7.05;;;14.80;1.00;;;;;;7389600;19;20018;-71
2023/09/28 05:36:30;;;;;;;11.43;7.10;;;14.80;1.00;;;;;;7389495;19;20022;-70
2023/09/28 05:39:00;;;;;;;14.55;6.68;;;14.80;1.00;;;;;;7392112;19;20054;-71
2023/09/28 05:41:30;;;;;;;9.50;6.72;;;14.80;1.00;;;;;;7390449;19;20090;-70
2023/09/28 05:44:01;;;;;;;11.80;8.32;;;14.80;1.00;;;;;;7391726;19;20031;-70
2023/09/28 05:46:31;;;;;;;9.95;7.38;;;14.80;1.00;;;;;;7390366;19;20007;-70
2023/09/28 05:49:04;;;;;;;10.77;7.78;;;14.80;1.00;;;;;;7390402;19;20038;-70
2023/09/28 05:51:34;;;;;;;10.88;7.03;;;14.80;1.00;;;;;;7389576;19;20010;-70
2023/09/28 05:54:04;;;;;;;8.90;6.45;;;14.80;1.00;;;;;;7390692;19;20098;-70
2023/09/28 05:56:34;;;;;;;10.25;6.45;;;14.80;1.00;;;;;;7389079;19;20063;-70
2023/09/28 05:59:05;;;;;;;10.48;6.97;;;14.80;1.00;;;;;;7390658;19;20028;-69
2023/09/28 06:01:35;;;;;;;14.48;6.95;;;14.80;1.00;;;;;;7390703;19;20451;-71
2023/09/28 06:04:08;;;;;;;9.20;7.05;;;14.80;1.00;;;;;;7397144;19;20046;-69
2023/09/28 06:06:38;;;;;;;8.25;7.03;;;14.90;1.00;;;;;;7395351;19;20046;-70
2023/09/28 06:09:08;;;;;;;18.52;7.28;;;15.00;1.00;;;;;;7396690;19;20472;-70
2023/09/28 06:11:38;;;;;;;13.02;7.43;;;15.00;1.00;;;;;;7396267;19;20035;-70
2023/09/28 06:14:08;;;;;;;11.57;7.15;;;15.20;1.00;;;;;;7396829;19;20025;-71
2023/09/28 06:16:40;;;;;;;11.38;7.10;;;15.30;1.00;;;;;;7395707;19;20078;-70
2023/09/28 06:19:13;;;;;;;10.25;6.88;;;15.30;1.00;;;;;;7396098;19;20047;-70
2023/09/28 06:21:43;;;;;;;14.27;7.38;;;15.30;1.00;;;;;;7397011;19;20094;-71
2023/09/28 06:24:15;;;;;;;10.07;6.53;;;15.40;1.00;;;;;;7396177;19;20011;-69
2023/09/28 06:26:45;;;;;;;8.65;6.50;;;15.30;1.00;;;;;;7395925;19;20028;-70
2023/09/28 06:29:15;;;;;;;12.45;6.85;;;15.40;1.00;;;;;;7396804;19;20042;-71
2023/09/28 06:31:45;;;;;;;8.25;6.30;;;15.50;1.00;;;;;;7395404;19;21256;-70
2023/09/28 06:34:18;;;;;;;8.20;6.25;;;15.60;1.00;;;;;;7395634;19;20022;-70
2023/09/28 06:36:48;;;;;;;10.20;6.20;;;15.60;1.00;;;;;;7394630;19;20010;-70
2023/09/28 06:39:23;;;;;;;9.75;6.60;;;15.60;1.00;;;;;;7396813;19;20039;-70
2023/09/28 06:41:53;;;;;;;12.32;6.47;;;15.60;1.00;;;;;;7394428;19;20015;-69
2023/09/28 06:44:31;;;;;;;11.30;6.43;;;15.70;1.00;;;;;;7395138;19;20074;-70
2023/09/28 06:47:01;;;;;;;9.35;6.10;;;15.70;1.00;;;;;;7393181;19;20043;-70
2023/09/28 06:49:34;;;;;;;7.72;6.28;;;15.80;1.00;;;;;;7394178;19;20018;-70
2023/09/28 06:52:04;;;;;;;9.68;5.80;;;15.80;1.00;;;;;;7396029;19;20337;-70
2023/09/28 06:54:36;;;;;;;8.13;6.15;;;15.80;1.00;;;;;;7394404;19;20034;-70
2023/09/28 06:57:07;;;;;;;9.45;6.00;;;15.80;1.00;;;;;;7393068;19;20010;-70
2023/09/28 06:59:37;;;;;;;10.20;5.53;;;15.80;1.00;;;;;;7393625;19;20021;-70
2023/09/28 07:02:09;;;;;;;11.32;5.68;;;15.80;1.00;;;;;;7394749;19;20014;-70
2023/09/28 07:04:42;;;;;;;9.30;6.03;;;15.80;1.00;;;;;;7393993;19;20095;-70
2023/09/28 07:07:16;;;;;;;10.85;6.38;;;16.10;1.00;;;;;;7390866;19;20031;-69
2023/09/28 07:09:46;;;;;;;;;;;16.30;1.00;;;;;;7394364;19;20010;-69
2023/09/28 07:12:26;;;;;;;8.43;5.57;;;16.50;1.00;;;;;;7394897;19;19915;-69
2023/09/28 07:14:56;;;;;;;9.32;5.70;;;16.70;1.00;;;;;;7393657;19;20042;-69
2023/09/28 07:17:27;;;;;;;7.32;5.63;;;16.90;1.00;;;;;;7394447;19;20023;-69
2023/09/28 07:19:59;;;;;;;8.35;5.72;;;17.10;1.00;;;;;;7393710;19;20026;-69
2023/09/28 07:22:29;;;;;;;8.90;5.43;;;17.10;1.00;;;;;;7392101;19;20018;-70
2023/09/28 07:24:59;;;;;;;6.53;5.35;;;17.00;1.00;;;;;;7392322;19;20018;-69
2023/09/28 07:27:32;;;;;;;11.75;5.90;;;16.90;1.00;;;;;;7393566;19;20022;-69
2023/09/28 07:30:05;;;;;;;11.65;5.78;;;16.80;1.00;;;;;;7394496;19;20406;-69
2023/09/28 07:32:35;;;;;;;6.43;5.03;;;16.80;1.00;;;;;;7407609;19;20014;-69
2023/09/28 07:35:09;;;;;;;9.32;5.82;;;16.90;1.00;;;;;;7396490;19;20054;-70
2023/09/28 07:37:39;;;;;;;7.97;5.68;;;17.20;1.00;;;;;;7394460;19;20014;-69
2023/09/28 07:40:12;;;;;;;8.75;5.32;;;17.50;1.00;;;;;;7390499;19;20007;-68
2023/09/28 07:42:43;;;;;;;8.45;5.40;;;17.60;1.00;;;;;;7392384;19;20031;-69
2023/09/28 07:45:15;;;;;;;10.75;5.38;;;17.70;1.00;;;;;;7392871;19;20022;-69
2023/09/28 07:47:45;;;;;;;7.88;5.65;;;17.70;1.00;;;;;;7393146;19;20101;-69
2023/09/28 07:50:18;;;;;;;11.32;7.05;;;17.90;1.00;;;;;;7390800;19;20082;-69
2023/09/28 07:52:48;;;;;;;11.30;5.80;;;18.00;1.00;;;;;;7393387;19;20086;-69
2023/09/28 07:55:19;;;;;;;7.30;5.22;;;18.20;1.00;;;;;;7390945;19;20014;-69
2023/09/28 07:57:49;;;;;;;9.10;5.80;;;18.20;1.00;;;;;;7391609;19;20018;-70
2023/09/28 08:00:27;;;;;;;9.80;5.68;;;18.30;1.00;;;;;;7391415;19;20082;-70
2023/09/28 08:02:57;;;;;;;10.82;6.07;;;18.30;1.00;;;;;;7392371;19;20011;-70
2023/09/28 08:05:31;;;;;;;11.75;5.72;;;18.30;1.00;;;;;;7392243;19;20007;-70
2023/09/28 08:08:02;;;;;;;11.20;5.97;;;18.50;1.00;;;;;;7393523;19;20490;-69
2023/09/28 08:10:45;;;;;;;9.52;5.43;;;18.60;1.00;;;;;;7392407;19;20019;-70
2023/09/28 08:13:15;;;;;;;10.35;5.75;;;18.50;1.00;;;;;;7391547;19;20521;-70
2023/09/28 08:15:46;;;;;;;9.63;5.03;;;18.80;1.00;;;;;;7390999;19;20015;-70
2023/09/28 08:18:16;;;;;;;8.10;4.80;;;19.00;1.00;;;;;;7392534;19;20011;-71
2023/09/28 08:20:48;;;;;;;24.55;16.17;;;19.10;1.00;;;;;;7392159;19;20014;-70
2023/09/28 08:23:38;;;;;;;8.20;4.70;;;19.20;1.00;;;;;;7392089;19;20800;-69
2023/09/28 08:26:11;;;;;;;10.00;4.88;;;19.40;1.00;;;;;;7390610;19;20345;-70
2023/09/28 08:28:42;;;;;;;6.43;4.68;;;19.40;1.00;;;;;;7392591;19;20074;-70
2023/09/28 08:31:12;;;;;;;7.05;4.30;;;19.50;1.00;;;;;;7391044;19;20033;-71
2023/09/28 08:33:42;;;;;;;7.15;4.18;;;19.60;1.00;;;;;;7391670;19;20017;-71
2023/09/28 08:36:15;;;;;;;5.30;3.90;;;19.80;1.00;;;;;;7389144;19;20017;-70
2023/09/28 08:38:46;;;;;;;6.97;4.20;;;20.00;1.00;;;;;;7392797;19;20007;-70
2023/09/28 08:41:19;;;;;;;8.48;4.22;;;20.00;1.00;;;;;;7390804;19;20014;-69
2023/09/28 08:43:55;;;;;;;7.53;3.88;;;20.00;1.00;;;;;;7390657;19;20102;-70
2023/09/28 08:46:30;;;;;;;5.30;3.70;;;20.10;1.00;;;;;;7391622;19;20024;-71
2023/09/28 08:49:15;;;;;;;8.27;4.20;;;20.30;1.00;;;;;;7390852;19;20018;-69
2023/09/28 08:51:50;;;;;;;8.70;3.97;;;20.40;1.00;;;;;;7391522;19;20021;-70
2023/09/28 08:54:22;;;;;;;7.38;3.90;;;20.50;1.00;;;;;;7391150;19;20018;-71
2023/09/28 08:56:54;;;;;;;7.32;3.80;;;20.70;1.00;;;;;;7390616;19;20022;-71
2023/09/28 08:59:28;;;;;;;5.70;4.00;;;20.80;1.00;;;;;;7392151;19;20467;-70
2023/09/28 09:02:00;;;;;;;6.50;4.13;;;20.70;1.00;;;;;;7392289;19;20011;-70
2023/09/28 09:04:30;;;;;;;5.53;3.83;;;20.80;1.00;;;;;;7391943;19;20030;-70
2023/09/28 09:07:05;;;;;;;9.82;3.85;;;21.00;1.00;;;;;;7388611;19;20022;-71
2023/09/28 09:09:39;;;;;;;6.85;4.22;;;21.10;1.00;;;;;;7387340;19;20129;-70
2023/09/28 09:12:11;;;;;;;8.90;4.00;;;21.20;1.00;;;;;;7392086;19;20365;-71
2023/09/28 09:14:42;;;;;;;12.57;4.10;;;21.40;1.00;;;;;;7388676;19;20014;-70
2023/09/28 09:17:12;;;;;;;8.30;4.65;;;21.50;1.00;;;;;;7391325;19;20766;-70
2023/09/28 09:19:44;;;;;;;9.40;3.97;;;21.60;1.00;;;;;;7390299;19;20029;-71
2023/09/28 09:22:29;;;;;;;4.68;3.53;;;21.60;1.00;;;;;;7392338;19;20379;-70
2023/09/28 09:25:17;;;;;;;6.18;3.72;;;21.80;1.00;;;;;;7391459;19;20006;-70
2023/09/28 09:27:48;;;;;;;5.38;3.55;;;22.10;1.00;;;;;;7392604;19;20018;-71
2023/09/28 09:30:20;;;;;;;8.80;3.85;;;22.30;1.00;;;;;;7391924;19;20024;-70
2023/09/28 09:32:50;;;;;;;7.63;3.92;;;22.40;1.00;;;;;;7391766;19;20025;-71
2023/09/28 09:35:25;;;;;;;7.93;3.70;;;22.10;1.00;;;;;;7389591;19;20013;-71
2023/09/28 09:37:59;;;;;;;5.35;3.47;;;22.20;1.00;;;;;;7389592;19;20021;-71
2023/09/28 09:40:30;;;;;;;6.30;3.92;;;22.40;1.00;;;;;;7389192;19;20031;-70
2023/09/28 09:43:08;;;;;;;7.15;3.72;;;22.30;1.00;;;;;;7389559;19;20026;-70
2023/09/28 09:45:39;;;;;;;4.97;3.38;;;22.40;1.00;;;;;;7389121;19;20011;-71
2023/09/28 09:48:09;;;;;;;5.78;4.03;;;22.60;1.00;;;;;;7390968;19;20014;-71
2023/09/28 09:50:41;;;;;;;7.30;3.58;;;22.70;1.00;;;;;;7388871;19;20006;-70
2023/09/28 09:53:15;;;;;;;7.70;4.20;;;22.70;1.00;;;;;;7390323;19;20481;-70
2023/09/28 09:55:45;;;;;;;5.72;3.53;;;22.60;1.00;;;;;;7389073;19;20010;-71
2023/09/28 09:58:29;;;;;;;5.95;3.55;;;22.90;1.00;;;;;;7389340;19;20048;-71
2023/09/28 10:01:00;;;;;;;;;;;23.20;1.00;;;;;;7389609;19;20014;-70
2023/09/28 10:03:32;;;;;;;5.60;3.53;;;23.10;1.00;;;;;;7389230;19;19932;-70
2023/09/28 10:06:05;;;;;;;5.72;3.58;;;23.20;1.00;;;;;;7387755;19;20006;-70
2023/09/28 10:08:38;;;;;;;10.98;4.05;;;23.10;1.00;;;;;;7387196;19;20539;-69
2023/09/28 10:11:10;;;;;;;6.78;3.50;;;23.10;1.00;;;;;;7388253;19;20014;-70
2023/09/28 10:13:40;;;;;;;5.78;3.20;;;23.30;1.00;;;;;;7385555;19;20482;-70
2023/09/28 10:16:14;;;;;;;4.95;3.35;;;23.70;1.00;;;;;;7387339;19;20042;-69
2023/09/28 10:18:46;;;;;;;4.28;3.05;;;23.60;1.00;;;;;;7388935;19;20041;-70
2023/09/28 10:21:17;;;;;;;5.40;3.00;;;23.70;1.00;;;;;;7388284;19;20361;-69
2023/09/28 10:23:50;;;;;;;4.25;3.05;;;23.80;1.00;;;;;;7388061;19;20022;-70
2023/09/28 10:26:22;;;;;;;4.25;3.10;;;24.10;1.00;;;;;;7387932;19;20541;-70
2023/09/28 10:29:06;;;;;;;4.75;3.40;;;23.90;1.00;;;;;;7388798;19;20018;-69
2023/09/28 10:31:39;;;;;;;3.67;2.80;;;23.80;1.00;;;;;;7387397;19;20018;-70
2023/09/28 10:34:29;;;;;;;4.80;3.08;;;23.80;1.00;;;;;;7386893;19;20478;-70
2023/09/28 10:37:22;;;;;;;6.50;2.95;;;24.00;1.00;;;;;;7388415;19;20011;-71
2023/09/28 10:39:57;;;;;;;6.35;3.17;;;24.10;1.00;;;;;;7386790;19;20029;-70
2023/09/28 10:42:30;;;;;;;5.10;3.30;;;24.10;1.00;;;;;;7388606;19;20026;-70
2023/09/28 10:45:00;;;;;;;4.47;3.03;;;24.20;1.00;;;;;;7387340;19;20011;-70
2023/09/28 10:47:31;;;;;;;5.25;2.88;;;24.20;1.00;;;;;;7390131;19;20115;-71
2023/09/28 10:50:04;;;;;;;5.75;3.40;;;24.30;1.00;;;;;;7394748;19;20014;-70
2023/09/28 10:52:34;;;;;;;10.70;3.33;;;24.40;1.00;;;;;;7395765;19;20012;-71
2023/09/28 10:55:10;;;;;;;5.55;3.20;;;24.40;1.00;;;;;;7393474;19;20503;-71
2023/09/28 10:57:41;;;;;;;7.18;3.55;;;24.50;1.00;;;;;;7394434;19;20023;-71
2023/09/28 11:00:12;;;;;;;5.18;2.90;;;24.40;1.00;;;;;;7393405;19;20034;-71
2023/09/28 11:02:44;;;;;;;3.58;2.95;;;24.50;1.00;;;;;;7393525;19;20019;-70
2023/09/28 11:05:14;;;;;;;6.03;3.10;;;24.20;1.00;;;;;;7393065;19;20041;-70
2023/09/28 11:07:51;;;;;;;5.55;3.33;;;24.30;1.00;;;;;;7399257;19;20011;-71
2023/09/28 11:10:25;;;;;;;5.05;3.28;;;24.40;1.00;;;;;;7400386;19;20335;-70
2023/09/28 11:12:55;;;;;;;5.18;2.92;;;24.40;1.00;;;;;;7390485;19;20570;-70
2023/09/28 11:15:29;;;;;;;6.32;3.10;;;24.50;1.00;;;;;;7390722;19;20026;-71
2023/09/28 11:17:59;;;;;;;4.18;3.03;;;24.50;1.00;;;;;;7393415;19;20114;-71
2023/09/28 11:20:31;;;;;;;4.88;2.92;;;24.50;1.00;;;;;;7392226;19;20018;-71
2023/09/28 11:23:01;;;;;;;7.22;3.05;;;24.60;1.00;;;;;;7392619;19;20014;-71
2023/09/28 11:25:34;;;;;;;6.28;3.17;;;24.60;1.00;;;;;;7390742;19;20010;-71
2023/09/28 11:28:16;;;;;;;7.17;3.07;;;24.90;1.00;;;;;;7393572;19;20014;-72
2023/09/28 11:30:46;;;;;;;5.90;2.95;;;24.70;1.00;;;;;;7389872;19;20026;-70
2023/09/28 11:33:16;;;;;;;6.90;3.13;;;24.80;1.00;;;;;;7393271;19;20023;-72
2023/09/28 11:35:47;;;;;;;5.32;3.17;;;24.70;1.00;;;;;;7391492;19;20522;-71
2023/09/28 11:38:18;;;;;;;8.30;3.58;;;24.60;1.00;;;;;;7393488;19;20043;-71
2023/09/28 11:40:54;;;;;;;4.25;3.00;;;24.70;1.00;;;;;;7390034;19;20011;-71
2023/09/28 11:43:24;;;;;;;4.32;2.80;;;24.70;1.00;;;;;;7391642;19;20026;-70
2023/09/28 11:45:56;;;;;;;4.18;2.90;;;24.70;1.00;;;;;;7390158;19;20014;-70
2023/09/28 11:48:26;;;;;;;4.15;3.03;;;24.90;1.00;;;;;;7393024;19;20011;-71
2023/09/28 11:50:57;;;;;;;5.07;3.00;;;25.10;1.00;;;;;;7390816;19;20039;-71
2023/09/28 11:53:27;;;;;;;5.20;2.67;;;25.30;1.00;;;;;;7391543;19;20018;-71
2023/09/28 11:56:02;;;;;;;4.68;2.95;;;25.20;1.00;;;;;;7390634;19;20042;-70
2023/09/28 11:58:34;;;;;;;4.30;2.83;;;25.30;1.00;;;;;;7390504;19;20018;-70
2023/09/28 12:01:05;;;;;;;4.25;2.45;;;25.30;1.00;;;;;;7390092;19;20073;-70
2023/09/28 12:03:38;;;;;;;5.47;3.05;;;25.40;1.00;;;;;;7394934;19;20031;-70
2023/09/28 12:06:08;;;;;;;6.72;3.10;;;25.30;1.00;;;;;;7392632;19;20043;-70
2023/09/28 12:08:39;;;;;;;4.90;3.35;;;25.40;1.00;;;;;;7392372;19;20010;-76
2023/09/28 12:11:11;;;;;;;4.68;3.08;;;25.40;1.00;;;;;;7393105;19;20034;-73
2023/09/28 12:13:42;;;;;;;5.28;3.40;;;25.10;1.00;;;;;;7390541;19;20022;-72
2023/09/28 12:16:13;;;;;;;7.53;3.17;;;25.20;1.00;;;;;;7387843;19;20038;-73
2023/09/28 12:18:43;;;;;;;4.60;3.53;;;25.00;1.00;;;;;;7389223;19;20018;-74
2023/09/28 12:21:14;;;;;;;4.68;3.17;;;25.10;1.00;;;;;;7388256;19;20010;-73
2023/09/28 12:23:44;;;;;;;7.90;3.58;;;25.20;1.00;;;;;;7388568;19;20014;-73
2023/09/28 12:26:17;;;;;;;5.22;3.00;;;25.20;1.00;;;;;;7387676;19;20015;-73
2023/09/28 12:28:47;;;;;;;5.18;3.30;;;25.30;1.00;;;;;;7388705;19;20010;-73
2023/09/28 12:31:17;;;;;;;7.88;3.30;;;25.10;1.00;;;;;;7387490;19;20054;-73
2023/09/28 12:33:48;;;;;;;6.82;3.33;;;25.10;1.00;;;;;;7388955;19;20062;-73
2023/09/28 12:36:18;;;;;;;5.05;2.95;;;25.10;1.00;;;;;;7389498;19;20546;-73
2023/09/28 12:38:51;;;;;;;4.28;2.80;;;25.00;1.00;;;;;;7392257;19;20019;-72
2023/09/28 12:41:24;;;;;;;4.43;2.80;;;25.20;1.00;;;;;;7391203;19;20082;-74
2023/09/28 12:43:55;;;;;;;4.30;3.13;;;25.30;1.00;;;;;;7391961;19;20125;-73
2023/09/28 12:46:26;;;;;;;6.55;2.63;;;25.20;1.00;;;;;;7390837;19;20368;-73
2023/09/28 12:48:57;;;;;;;4.50;2.58;;;25.30;1.00;;;;;;7391844;19;20506;-73
2023/09/28 12:51:27;;;;;;;6.28;3.20;;;25.20;1.00;;;;;;7390798;19;20011;-73
2023/09/28 12:53:57;;;;;;;5.55;3.13;;;25.30;1.00;;;;;;7391034;19;20021;-73
2023/09/28 12:56:30;;;;;;;5.70;2.97;;;25.40;1.00;;;;;;7391550;19;20014;-73
2023/09/28 12:59:01;;;;;;;4.90;2.75;;;25.30;1.00;;;;;;7390930;19;20035;-73
2023/09/28 13:01:31;;;;;;;4.03;2.78;;;25.30;1.00;;;;;;7390336;19;20010;-73
2023/09/28 13:04:04;;;;;;;3.67;2.85;;;25.40;1.00;;;;;;7391312;19;20015;-73
2023/09/28 13:06:35;;;;;;;;;;;25.50;1.00;;;;;;7388637;19;20074;-73
2023/09/28 13:09:06;;;;;;;7.32;3.08;;;25.50;1.00;;;;;;7391156;19;19951;-73
2023/09/28 13:11:39;;;;;;;5.38;2.60;;;25.50;1.00;;;;;;7389665;19;20011;-74
2023/09/28 13:14:09;;;;;;;3.70;2.40;;;25.60;1.00;;;;;;7390677;19;20114;-74